Time;durP1;ratioP1;P1;durP2;ratioP2;P2;SDS_P1;SDS_P2;PMS_P1;PMS_P2;Temp;Humidity;BMP_temperature;BMP_pressure;BME280_temperature;BME280_humidity;BME280_pressure;Samples;Min_cycle;Max_cycle;Signal;HPM_P1;HPM_P2
2022/08/28 00:02:52;;;;;;;4.28;3.67;;;24.60;99.90;;;;;;6190771;28;87098;-66
2022/08/28 00:05:55;;;;;;;4.18;3.78;;;24.50;99.90;;;;;;6205429;28;88019;-66
2022/08/28 00:08:57;;;;;;;4.20;3.80;;;24.50;99.90;;;;;;6192767;28;88307;-65
2022/08/28 00:11:59;;;;;;;3.92;3.63;;;24.50;99.90;;;;;;6196746;28;89113;-66
2022/08/28 05:36:49;;;;;;;2.63;2.20;;;24.00;99.90;;;;;;6067286;28;87969;-65
2022/08/28 05:39:51;;;;;;;4.45;1.92;;;24.00;99.90;;;;;;6038825;28;90314;-65
2022/08/28 05:42:53;;;;;;;2.30;2.10;;;24.00;99.90;;;;;;6036107;28;89097;-64
2022/08/28 05:45:58;;;;;;;2.45;2.00;;;24.00;99.90;;;;;;6030831;28;89396;-64
2022/08/28 05:49:01;;;;;;;3.65;1.80;;;24.00;99.90;;;;;;6037986;28;88873;-64
2022/08/28 05:52:04;;;;;;;3.00;1.80;;;24.00;99.90;;;;;;6038179;28;89239;-64
2022/08/28 05:55:08;;;;;;;2.83;1.70;;;24.00;99.90;;;;;;6038090;28;89041;-63
2022/08/28 06:01:27;;;;;;;2.83;1.77;;;24.00;99.90;;;;;;6036898;28;87825;-64
2022/08/28 06:04:29;;;;;;;2.92;2.33;;;24.10;99.90;;;;;;6038588;28;89260;-64
2022/08/28 06:07:33;;;;;;;2.92;2.20;;;24.10;99.90;;;;;;6038333;28;91310;-63
2022/08/28 06:10:36;;;;;;;2.90;2.15;;;24.00;99.90;;;;;;6037749;28;90450;-63
2022/08/28 06:13:38;;;;;;;2.80;2.10;;;24.00;99.90;;;;;;6036056;28;89049;-63
2022/08/28 06:16:43;;;;;;;2.42;2.00;;;24.00;99.90;;;;;;6037369;28;89128;-63
2022/08/28 06:19:45;;;;;;;3.63;1.80;;;24.00;99.90;;;;;;6037480;28;88759;-63
2022/08/28 06:22:51;;;;;;;2.40;1.75;;;24.00;99.90;;;;;;6037658;28;89306;-64
2022/08/28 06:25:53;;;;;;;3.17;1.60;;;24.00;99.90;;;;;;6036305;28;90485;-64
2022/08/28 06:28:59;;;;;;;2.28;1.75;;;24.00;99.90;;;;;;6037864;28;88287;-64
2022/08/28 06:32:04;;;;;;;2.53;1.50;;;24.00;99.90;;;;;;6037486;28;88315;-63
2022/08/28 06:35:06;;;;;;;2.35;1.70;;;24.00;99.90;;;;;;6037415;28;89308;-63
2022/08/28 06:38:11;;;;;;;2.28;1.70;;;24.00;99.90;;;;;;6036536;28;89277;-63
2022/08/28 06:41:14;;;;;;;3.20;1.77;;;24.00;99.90;;;;;;6037518;28;89003;-64
2022/08/28 06:44:19;;;;;;;1.67;1.55;;;24.00;99.90;;;;;;6030241;29;89835;-63
2022/08/28 06:47:21;;;;;;;1.60;1.50;;;24.00;99.90;;;;;;6034846;28;88989;-63
2022/08/28 06:50:23;;;;;;;1.75;1.45;;;24.00;99.90;;;;;;6040849;28;88740;-63
2022/08/28 06:53:30;;;;;;;2.00;1.45;;;24.00;99.90;;;;;;6039958;28;88027;-65
2022/08/28 06:56:33;;;;;;;2.88;1.40;;;24.00;99.90;;;;;;6040941;28;87982;-65
2022/08/28 06:59:35;;;;;;;1.98;1.30;;;24.00;99.90;;;;;;6041064;28;88397;-65
2022/08/28 07:02:36;;;;;;;1.92;1.73;;;23.90;99.90;;;;;;6042412;28;88235;-65
2022/08/28 07:05:38;;;;;;;1.58;1.33;;;23.90;99.90;;;;;;6042076;28;89168;-65
2022/08/28 07:08:43;;;;;;;1.98;1.35;;;24.00;99.90;;;;;;6030776;29;89194;-65
2022/08/28 07:11:46;;;;;;;1.90;1.40;;;23.90;99.90;;;;;;6040449;28;90047;-65
2022/08/28 07:14:48;;;;;;;1.63;1.38;;;24.00;99.90;;;;;;6040529;28;89125;-65
2022/08/28 07:17:50;;;;;;;3.53;1.50;;;23.90;99.90;;;;;;6040059;29;89467;-65
2022/08/28 07:20:56;;;;;;;2.47;1.30;;;23.90;99.90;;;;;;6040417;28;89098;-66
2022/08/28 07:24:02;;;;;;;2.47;1.30;;;23.90;99.90;;;;;;6039856;28;89181;-65
2022/08/28 07:27:04;;;;;;;2.83;1.60;;;23.90;99.90;;;;;;6037778;28;89109;-65
2022/08/28 07:30:08;;;;;;;2.90;1.48;;;23.90;99.90;;;;;;6031625;28;87210;-65
2022/08/28 07:33:10;;;;;;;2.42;1.08;;;23.90;99.90;;;;;;6040600;28;88387;-66
2022/08/28 07:36:14;;;;;;;2.05;1.40;;;23.90;99.90;;;;;;6038779;28;89415;-65
2022/08/28 07:39:18;;;;;;;1.60;1.30;;;23.90;99.90;;;;;;6034576;28;89644;-66
2022/08/28 07:45:36;;;;;;;1.60;1.27;;;23.90;99.90;;;;;;6040589;29;89001;-65
2022/08/28 07:48:40;;;;;;;1.58;1.20;;;23.90;99.90;;;;;;6040722;28;88986;-65
2022/08/28 07:51:42;;;;;;;1.30;1.20;;;23.90;99.90;;;;;;6040464;28;89139;-65
2022/08/28 07:54:46;;;;;;;1.40;1.20;;;23.90;99.90;;;;;;6039960;28;89036;-65
2022/08/28 07:57:48;;;;;;;1.45;1.30;;;23.90;99.90;;;;;;6040650;28;89181;-65
2022/08/28 08:00:51;;;;;;;1.30;1.20;;;23.90;99.90;;;;;;6040229;28;89136;-65
2022/08/28 08:03:53;;;;;;;2.40;1.27;;;23.90;99.90;;;;;;6040720;28;88430;-66
2022/08/28 08:06:55;;;;;;;2.40;1.10;;;23.90;99.90;;;;;;6038553;28;89087;-65
2022/08/28 08:09:58;;;;;;;1.50;1.40;;;23.90;99.90;;;;;;6039406;28;89173;-65
2022/08/28 08:13:00;;;;;;;1.63;1.23;;;23.90;99.90;;;;;;6038781;28;90176;-66
2022/08/28 08:16:04;;;;;;;1.40;1.30;;;23.90;99.90;;;;;;6030229;29;89091;-65
2022/08/28 08:19:08;;;;;;;1.50;1.40;;;23.90;99.90;;;;;;6039537;28;89022;-63
2022/08/28 08:22:10;;;;;;;1.70;1.45;;;23.90;99.90;;;;;;6040065;29;89459;-63
2022/08/28 08:25:13;;;;;;;1.50;1.20;;;23.90;99.90;;;;;;6039978;28;89096;-63
2022/08/28 08:28:15;;;;;;;1.42;1.30;;;23.90;99.90;;;;;;6039218;28;89091;-63
2022/08/28 08:31:20;;;;;;;1.40;1.30;;;23.90;99.90;;;;;;6039450;28;89331;-63
2022/08/28 08:34:22;;;;;;;1.63;1.40;;;23.90;99.90;;;;;;6039464;28;88702;-63
2022/08/28 08:37:24;;;;;;;2.08;1.83;;;23.90;99.90;;;;;;6038541;28;89128;-63
2022/08/28 08:40:28;;;;;;;1.75;1.63;;;23.90;99.90;;;;;;6039313;28;89183;-63
2022/08/28 08:43:34;;;;;;;1.67;1.58;;;23.90;99.90;;;;;;6039433;28;90007;-63
2022/08/28 08:46:45;;;;;;;1.98;1.70;;;23.90;99.90;;;;;;6038632;29;89022;-63
2022/08/28 08:49:51;;;;;;;2.70;2.50;;;23.90;99.90;;;;;;6039329;28;89413;-63
2022/08/28 08:53:17;;;;;;;2.08;1.90;;;23.90;99.90;;;;;;6036903;28;89869;-63
2022/08/28 08:56:22;;;;;;;2.30;2.10;;;23.90;99.90;;;;;;6039201;28;89428;-63
2022/08/28 08:59:28;;;;;;;3.08;2.40;;;23.90;99.90;;;;;;6039270;28;89079;-63
2022/08/28 09:02:36;;;;;;;2.60;2.40;;;23.80;99.90;;;;;;6038015;28;89012;-63
2022/08/28 09:05:45;;;;;;;2.95;2.70;;;23.80;99.90;;;;;;6038874;28;88433;-63
2022/08/28 09:08:52;;;;;;;3.10;2.78;;;23.80;99.90;;;;;;6039898;29;89830;-63
2022/08/28 09:11:58;;;;;;;3.00;2.80;;;23.80;99.90;;;;;;6027667;29;89038;-63
2022/08/28 09:15:04;;;;;;;3.88;3.58;;;23.80;99.90;;;;;;6039176;28;89090;-63
2022/08/28 09:18:11;;;;;;;3.78;3.45;;;23.80;99.90;;;;;;6038755;28;89025;-63
2022/08/28 09:21:25;;;;;;;3.90;3.58;;;23.80;99.90;;;;;;6036605;28;88114;-63
2022/08/28 09:24:30;;;;;;;3.50;3.20;;;23.80;99.90;;;;;;6039307;28;89447;-63
2022/08/28 09:27:34;;;;;;;3.88;3.47;;;23.80;99.90;;;;;;6039075;28;89112;-63
2022/08/28 09:30:37;;;;;;;4.18;3.70;;;23.70;99.90;;;;;;6038678;28;89071;-63
2022/08/28 09:33:43;;;;;;;4.00;3.70;;;23.80;99.90;;;;;;6039102;28;89100;-63
2022/08/28 09:36:45;;;;;;;4.18;3.78;;;23.80;99.90;;;;;;6038747;28;88485;-63
2022/08/28 09:39:47;;;;;;;3.90;3.60;;;23.80;99.90;;;;;;6038289;28;89154;-63
2022/08/28 09:46:29;;;;;;;5.57;4.50;;;23.80;99.90;;;;;;6034721;29;89204;-63
2022/08/28 09:49:31;;;;;;;4.78;4.38;;;23.80;99.90;;;;;;6037582;28;89187;-63
2022/08/28 09:52:33;;;;;;;4.55;4.05;;;23.70;99.90;;;;;;6038104;28;89091;-63
2022/08/28 09:55:43;;;;;;;4.40;4.03;;;23.70;99.90;;;;;;6039159;28;89024;-63
2022/08/28 09:58:50;;;;;;;4.88;4.47;;;23.70;99.90;;;;;;6039123;28;89151;-63
2022/08/28 10:02:09;;;;;;;4.60;4.05;;;23.70;99.90;;;;;;6037956;28;89255;-63
2022/08/28 10:05:15;;;;;;;4.82;4.32;;;23.60;99.90;;;;;;6026936;29;89196;-63
2022/08/28 10:08:32;;;;;;;4.53;4.22;;;23.60;99.90;;;;;;6037525;28;88394;-63
2022/08/28 10:11:43;;;;;;;4.50;4.10;;;23.60;99.90;;;;;;6038638;29;89178;-63
2022/08/28 10:14:58;;;;;;;4.50;4.10;;;23.60;99.90;;;;;;6036189;28;88976;-63
2022/08/28 10:18:17;;;;;;;4.35;4.05;;;23.50;99.90;;;;;;6033722;29;90038;-63
2022/08/28 10:21:25;;;;;;;4.93;4.43;;;23.50;99.90;;;;;;6034936;29;89027;-63
2022/08/28 10:24:44;;;;;;;4.97;4.57;;;23.50;99.90;;;;;;6035707;28;89101;-63
2022/08/28 10:28:06;;;;;;;4.60;4.20;;;23.60;99.90;;;;;;6038102;29;89164;-63
2022/08/28 10:31:18;;;;;;;4.43;4.03;;;23.60;99.90;;;;;;6035803;29;89090;-63
2022/08/28 10:34:34;;;;;;;5.25;4.00;;;23.60;99.90;;;;;;6038190;28;89177;-63
2022/08/28 10:37:49;;;;;;;4.50;4.07;;;23.60;99.90;;;;;;6033985;29;90132;-63
2022/08/28 10:40:55;;;;;;;5.05;4.25;;;23.60;99.90;;;;;;6033168;29;88253;-64
2022/08/28 10:44:01;;;;;;;4.20;3.40;;;23.60;99.90;;;;;;6034559;28;88018;-63
2022/08/28 10:47:06;;;;;;;4.95;3.72;;;23.60;99.90;;;;;;6033874;28;89914;-64
2022/08/28 10:50:14;;;;;;;4.80;3.80;;;23.60;99.90;;;;;;6032607;28;88971;-65
2022/08/28 10:53:21;;;;;;;4.47;3.75;;;23.70;99.90;;;;;;6035251;28;89179;-65
2022/08/28 10:56:28;;;;;;;3.50;3.08;;;23.60;99.90;;;;;;6033995;28;89077;-65
2022/08/28 10:59:33;;;;;;;3.28;2.97;;;23.60;99.90;;;;;;6029483;29;89031;-65
2022/08/28 11:02:37;;;;;;;8.25;3.53;;;23.70;99.90;;;;;;6034359;29;90606;-65
2022/08/28 11:05:43;;;;;;;6.30;3.80;;;23.70;99.90;;;;;;6036914;28;89420;-65
2022/08/28 11:08:52;;;;;;;6.50;3.40;;;23.60;99.90;;;;;;6036270;28;89106;-65
2022/08/28 11:11:57;;;;;;;5.28;3.53;;;23.60;99.90;;;;;;6038040;28;88350;-66
2022/08/28 11:15:05;;;;;;;6.68;3.20;;;23.70;99.90;;;;;;6037103;28;89155;-66
2022/08/28 11:18:39;;;;;;;5.15;3.50;;;23.60;99.90;;;;;;6037488;28;89085;-66
2022/08/28 11:21:47;;;;;;;4.47;3.38;;;23.60;99.90;;;;;;6027617;29;90047;-66
2022/08/28 11:24:56;;;;;;;6.10;3.80;;;23.60;99.90;;;;;;6035655;28;89110;-66
2022/08/28 11:28:21;;;;;;;4.15;3.22;;;23.60;99.90;;;;;;6036825;28;89171;-66
2022/08/28 11:31:30;;;;;;;3.60;3.20;;;23.60;99.90;;;;;;6036946;29;89345;-66
2022/08/28 11:35:00;;;;;;;3.80;3.08;;;23.70;99.90;;;;;;6036112;28;88398;-66
2022/08/28 11:38:02;;;;;;;3.20;2.90;;;23.70;99.90;;;;;;6034553;29;89140;-65
2022/08/28 11:41:13;;;;;;;4.03;3.08;;;23.70;99.90;;;;;;6040076;29;89158;-66
2022/08/28 11:44:27;;;;;;;3.83;3.50;;;23.60;99.90;;;;;;6032888;29;88375;-65
2022/08/28 11:47:50;;;;;;;3.90;3.50;;;23.60;99.90;;;;;;6033114;29;89032;-66
2022/08/28 11:50:57;;;;;;;3.30;3.00;;;23.60;99.90;;;;;;6039655;29;88148;-66
2022/08/28 11:54:09;;;;;;;3.63;3.33;;;23.60;99.90;;;;;;6039321;28;92566;-66
2022/08/28 11:57:14;;;;;;;3.55;3.20;;;23.70;99.90;;;;;;6040318;28;89090;-66
2022/08/28 12:00:22;;;;;;;3.60;3.10;;;23.70;99.90;;;;;;6039150;28;89466;-66
2022/08/28 12:03:27;;;;;;;3.72;3.40;;;23.70;99.90;;;;;;6037913;29;89084;-66
2022/08/28 12:06:53;;;;;;;3.28;2.97;;;23.70;99.90;;;;;;6039014;28;89486;-66
2022/08/28 12:09:55;;;;;;;3.70;3.40;;;23.70;99.90;;;;;;6036675;29;89366;-65
2022/08/28 12:12:59;;;;;;;3.45;3.15;;;23.70;99.90;;;;;;6039011;28;90133;-66
2022/08/28 12:16:06;;;;;;;3.28;2.97;;;23.70;99.90;;;;;;6039840;28;87497;-65
2022/08/28 12:19:09;;;;;;;3.15;2.88;;;23.70;99.90;;;;;;6037892;29;89031;-65
2022/08/28 12:22:15;;;;;;;3.50;3.20;;;23.70;99.90;;;;;;6039559;29;89230;-65
2022/08/28 12:25:26;;;;;;;3.97;3.55;;;23.60;99.90;;;;;;6038756;28;89283;-65
2022/08/28 12:28:31;;;;;;;4.05;3.70;;;23.70;99.90;;;;;;6040184;28;87978;-65
2022/08/28 12:32:11;;;;;;;4.90;4.28;;;23.60;99.90;;;;;;6039924;28;89053;-65
2022/08/28 12:35:17;;;;;;;5.97;3.85;;;23.70;99.90;;;;;;6036056;28;87922;-65
2022/08/28 12:38:22;;;;;;;4.22;3.75;;;23.70;99.90;;;;;;6037024;28;89419;-66
2022/08/28 12:41:24;;;;;;;4.97;4.20;;;23.70;99.90;;;;;;6035068;28;89357;-66
2022/08/28 12:44:30;;;;;;;5.38;3.83;;;23.70;99.90;;;;;;6028422;29;89103;-66
2022/08/28 12:47:33;;;;;;;4.10;3.70;;;23.70;99.90;;;;;;6035744;29;88404;-66
2022/08/28 12:50:38;;;;;;;5.40;3.55;;;23.70;99.90;;;;;;6036658;28;89272;-67
2022/08/28 12:53:43;;;;;;;3.55;3.25;;;23.70;99.90;;;;;;6036081;28;89089;-66
2022/08/28 12:56:45;;;;;;;3.03;2.72;;;23.70;99.90;;;;;;6035603;28;90057;-66
2022/08/28 12:59:49;;;;;;;3.40;3.10;;;23.70;99.90;;;;;;6035884;28;89254;-66
2022/08/28 13:02:53;;;;;;;3.03;2.72;;;23.70;99.90;;;;;;6036371;28;89464;-66
2022/08/28 13:06:00;;;;;;;3.38;2.67;;;23.70;99.90;;;;;;6036191;28;89430;-67
2022/08/28 13:09:06;;;;;;;3.28;2.83;;;23.70;99.90;;;;;;6037049;28;89072;-67
2022/08/28 13:12:08;;;;;;;3.10;2.60;;;23.70;99.90;;;;;;6036684;28;89035;-67
2022/08/28 13:15:10;;;;;;;3.58;3.28;;;23.70;99.90;;;;;;6036184;28;88565;-66
2022/08/28 13:18:34;;;;;;;3.30;3.03;;;23.70;99.90;;;;;;6036979;28;88295;-66
2022/08/28 13:21:50;;;;;;;4.25;3.60;;;23.60;99.90;;;;;;6026671;29;89088;-66
2022/08/28 13:24:59;;;;;;;4.10;3.03;;;23.60;99.90;;;;;;6035886;28;89228;-67
2022/08/28 13:28:04;;;;;;;3.53;3.22;;;23.60;99.90;;;;;;6035341;28;90070;-66
2022/08/28 13:31:08;;;;;;;3.25;2.95;;;23.70;99.90;;;;;;6036341;28;89228;-65
2022/08/28 13:34:23;;;;;;;3.97;3.60;;;23.70;99.90;;;;;;6036681;28;89404;-66
2022/08/28 13:37:43;;;;;;;4.75;3.60;;;23.60;99.90;;;;;;6022592;29;89175;-65
2022/08/28 13:40:51;;;;;;;3.80;3.50;;;23.60;99.90;;;;;;6036983;28;89225;-65
2022/08/28 13:43:53;;;;;;;3.65;3.40;;;23.60;99.90;;;;;;6035363;28;89323;-63
2022/08/28 13:46:56;;;;;;;4.00;3.70;;;23.60;99.90;;;;;;6035306;28;89495;-63
2022/08/28 13:49:58;;;;;;;4.05;3.75;;;23.60;99.90;;;;;;6038888;28;88342;-64
2022/08/28 13:53:00;;;;;;;3.83;3.53;;;23.60;99.90;;;;;;6038248;28;89487;-64
2022/08/28 13:56:04;;;;;;;4.03;3.72;;;23.60;99.90;;;;;;6038911;28;89148;-64
2022/08/28 13:59:06;;;;;;;4.47;4.18;;;23.60;99.90;;;;;;6036132;28;91485;-64
2022/08/28 14:05:30;;;;;;;4.32;4.03;;;23.70;99.90;;;;;;6037518;29;87334;-64
2022/08/28 14:08:33;;;;;;;4.45;4.15;;;23.60;99.90;;;;;;6038546;29;89011;-64
2022/08/28 14:11:36;;;;;;;4.20;3.90;;;23.60;99.90;;;;;;6027792;29;89053;-63
2022/08/28 14:14:39;;;;;;;4.50;4.20;;;23.60;99.90;;;;;;6033478;29;89168;-64
2022/08/28 14:17:41;;;;;;;4.70;4.30;;;23.60;99.90;;;;;;6035259;28;89293;-63
2022/08/28 14:20:43;;;;;;;4.40;4.10;;;23.60;99.90;;;;;;6035995;28;88303;-63
2022/08/28 14:23:45;;;;;;;5.03;4.60;;;23.60;99.90;;;;;;6036615;28;89100;-63
2022/08/28 14:26:48;;;;;;;4.40;4.10;;;23.60;99.90;;;;;;6037705;28;88164;-63
2022/08/28 14:29:52;;;;;;;5.20;4.80;;;23.50;99.90;;;;;;6029883;28;90066;-63
2022/08/28 14:32:54;;;;;;;5.45;4.68;;;23.50;99.90;;;;;;6035077;28;89207;-63
2022/08/28 14:35:56;;;;;;;5.93;5.15;;;23.50;99.90;;;;;;6037008;29;89365;-63
2022/08/28 14:39:00;;;;;;;5.82;5.32;;;23.50;99.90;;;;;;6036561;28;88951;-63
2022/08/28 14:42:03;;;;;;;6.00;5.50;;;23.50;99.90;;;;;;6026731;28;89200;-63
2022/08/28 14:45:06;;;;;;;5.72;5.28;;;23.40;99.90;;;;;;6037787;28;89184;-63
2022/08/28 14:48:08;;;;;;;6.22;5.70;;;23.40;99.90;;;;;;6036762;28;89100;-63
2022/08/28 14:51:10;;;;;;;6.97;6.10;;;23.40;99.90;;;;;;6038415;28;88301;-63
2022/08/28 14:54:14;;;;;;;6.22;5.65;;;23.40;99.90;;;;;;6034807;28;88281;-63
2022/08/28 14:57:18;;;;;;;5.50;5.10;;;23.40;99.90;;;;;;6038093;28;89228;-63
2022/08/28 15:00:20;;;;;;;5.28;4.88;;;23.40;99.90;;;;;;6035675;28;88552;-63
2022/08/28 15:03:22;;;;;;;5.50;5.00;;;23.30;99.90;;;;;;6037456;28;89700;-63
2022/08/28 15:06:25;;;;;;;5.75;5.25;;;23.30;99.90;;;;;;6036852;28;89189;-63
2022/08/28 15:09:27;;;;;;;5.20;4.80;;;23.30;99.90;;;;;;6038066;28;89016;-63
2022/08/28 15:12:31;;;;;;;5.30;4.90;;;23.30;99.90;;;;;;6040417;28;89117;-63
2022/08/28 15:15:33;;;;;;;5.68;5.22;;;23.40;99.90;;;;;;6040702;28;89376;-62
2022/08/28 15:18:35;;;;;;;5.40;4.95;;;23.30;99.90;;;;;;6042742;28;88885;-63
2022/08/28 15:21:40;;;;;;;5.55;5.05;;;23.40;99.90;;;;;;6041741;28;87481;-63
2022/08/28 15:24:42;;;;;;;5.40;4.90;;;23.40;99.90;;;;;;6038963;29;87777;-62
2022/08/28 15:27:46;;;;;;;5.63;5.22;;;23.40;99.90;;;;;;6042009;29;88058;-63
2022/08/28 15:30:48;;;;;;;5.63;5.13;;;23.40;99.90;;;;;;6039738;28;90065;-63
2022/08/28 15:33:50;;;;;;;5.47;4.97;;;23.40;99.90;;;;;;6041395;28;89395;-63
2022/08/28 15:36:54;;;;;;;5.20;4.80;;;23.50;99.90;;;;;;6040160;29;89129;-62
2022/08/28 15:43:17;;;;;;;4.95;4.55;;;23.40;99.90;;;;;;6041494;28;87312;-62
2022/08/28 15:46:19;;;;;;;5.50;5.00;;;23.50;99.90;;;;;;6040371;28;89054;-63
2022/08/28 15:49:21;;;;;;;5.28;4.78;;;23.50;99.90;;;;;;6042210;28;89101;-63
2022/08/28 15:52:23;;;;;;;6.50;5.90;;;23.50;99.90;;;;;;6039491;28;88304;-62
2022/08/28 15:55:26;;;;;;;37.67;23.75;;;23.50;99.90;;;;;;6025992;28;89159;-63
2022/08/28 15:58:30;;;;;;;7.45;6.75;;;23.60;99.90;;;;;;6037112;29;89712;-63
2022/08/28 16:01:32;;;;;;;5.95;5.45;;;23.60;99.90;;;;;;6036952;28;89117;-63
2022/08/28 16:04:34;;;;;;;5.80;5.30;;;23.60;99.90;;;;;;6037012;28;89383;-63
2022/08/28 16:07:36;;;;;;;5.32;4.82;;;23.60;99.90;;;;;;6037018;28;88298;-63
2022/08/28 16:10:39;;;;;;;5.50;4.93;;;23.60;99.90;;;;;;6038164;28;89258;-61
2022/08/28 16:13:43;;;;;;;5.43;4.82;;;23.60;99.90;;;;;;6037670;28;88824;-63
2022/08/28 16:16:45;;;;;;;5.15;4.75;;;23.60;99.90;;;;;;6036356;28;89208;-66
2022/08/28 16:19:47;;;;;;;4.75;4.25;;;23.60;99.90;;;;;;6039793;28;89113;-65
2022/08/28 16:22:50;;;;;;;4.85;4.45;;;23.60;99.90;;;;;;6037796;28;88434;-66
2022/08/28 16:25:52;;;;;;;4.90;4.50;;;23.60;99.90;;;;;;6039228;28;89137;-67
2022/08/28 16:28:57;;;;;;;5.10;4.70;;;23.60;99.90;;;;;;6038860;28;87899;-66
2022/08/28 16:31:58;;;;;;;6.00;5.13;;;23.60;99.90;;;;;;6038559;28;90013;-64
2022/08/28 16:35:02;;;;;;;5.50;5.00;;;23.70;99.90;;;;;;6039760;28;89085;-63
2022/08/28 16:38:04;;;;;;;5.15;4.15;;;23.60;99.90;;;;;;6039290;28;89423;-63
2022/08/28 16:41:11;;;;;;;7.07;4.70;;;23.60;99.90;;;;;;6039107;29;89185;-63
2022/08/28 16:44:15;;;;;;;15.60;6.00;;;23.60;99.90;;;;;;6037919;29;89048;-63
2022/08/28 16:47:17;;;;;;;12.52;5.72;;;23.60;99.90;;;;;;6038008;28;89106;-63
2022/08/28 16:50:19;;;;;;;12.70;5.60;;;23.60;99.90;;;;;;6038822;28;89088;-63
2022/08/28 16:53:21;;;;;;;22.02;7.60;;;23.60;99.90;;;;;;6039224;28;88345;-63
2022/08/28 16:56:24;;;;;;;16.35;5.93;;;23.60;99.90;;;;;;6039649;28;87964;-63
2022/08/28 16:59:27;;;;;;;9.93;4.80;;;23.60;99.90;;;;;;6036260;29;87852;-63
2022/08/28 17:02:29;;;;;;;7.88;4.05;;;23.60;99.90;;;;;;6028917;29;89911;-63
2022/08/28 17:05:31;;;;;;;9.07;4.70;;;23.60;99.90;;;;;;6029142;29;88047;-63
2022/08/28 17:08:33;;;;;;;19.60;6.50;;;23.60;99.90;;;;;;6040284;28;88281;-63
2022/08/28 17:11:35;;;;;;;15.60;5.85;;;23.60;99.90;;;;;;6039080;29;89101;-63
2022/08/28 17:14:39;;;;;;;41.42;13.05;;;23.60;99.90;;;;;;6038463;28;89044;-63
2022/08/28 17:17:41;;;;;;;24.65;9.27;;;23.60;99.90;;;;;;6037947;28;89467;-63
2022/08/28 17:24:14;;;;;;;14.95;6.72;;;23.60;99.90;;;;;;5966348;29;86988;-63
2022/08/28 17:27:17;;;;;;;12.55;5.70;;;23.60;99.90;;;;;;6037277;28;89127;-63
2022/08/28 17:30:21;;;;;;;7.10;3.95;;;23.60;99.90;;;;;;6038149;28;89394;-63
2022/08/28 17:33:23;;;;;;;7.72;4.15;;;23.60;99.90;;;;;;6037627;28;89950;-63
2022/08/28 17:36:25;;;;;;;7.32;3.90;;;23.60;99.90;;;;;;6038287;28;89064;-63
2022/08/28 17:39:28;;;;;;;6.82;3.65;;;23.60;99.90;;;;;;6038447;28;89293;-64
2022/08/28 17:42:30;;;;;;;6.53;3.60;;;23.60;99.90;;;;;;6038797;28;88702;-63
2022/08/28 17:45:34;;;;;;;5.93;3.55;;;23.60;99.90;;;;;;6038321;29;90815;-64
2022/08/28 17:48:37;;;;;;;3.97;3.40;;;23.70;99.90;;;;;;6037707;28;89001;-63
2022/08/28 17:51:39;;;;;;;5.35;3.22;;;23.70;99.90;;;;;;6037753;28;88142;-64
2022/08/28 17:54:41;;;;;;;3.30;2.83;;;23.70;99.90;;;;;;6039491;28;86338;-63
2022/08/28 17:57:43;;;;;;;3.72;3.13;;;23.70;99.90;;;;;;6037942;28;89337;-63
2022/08/28 18:00:46;;;;;;;4.88;3.50;;;23.70;99.90;;;;;;6036050;28;89053;-63
2022/08/28 18:03:49;;;;;;;4.43;3.20;;;23.70;99.90;;;;;;6037418;28;88916;-63
2022/08/28 18:06:52;;;;;;;3.40;3.10;;;23.70;99.90;;;;;;6028360;29;88114;-63
2022/08/28 18:09:54;;;;;;;3.88;3.30;;;23.70;99.90;;;;;;6037082;29;89203;-63
2022/08/28 18:12:56;;;;;;;3.30;3.00;;;23.70;99.90;;;;;;6038233;29;89173;-63
2022/08/28 18:16:00;;;;;;;3.50;3.20;;;23.70;99.90;;;;;;6037297;28;87796;-63
2022/08/28 18:19:03;;;;;;;3.38;3.08;;;23.70;99.90;;;;;;6037945;28;89363;-63
2022/08/28 18:22:06;;;;;;;3.97;3.20;;;23.70;99.90;;;;;;6037727;28;90875;-63
2022/08/28 18:25:40;;;;;;;4.63;3.50;;;23.70;99.90;;;;;;6037872;28;88945;-63
2022/08/28 18:28:31;;;;;;;3.40;3.00;;;23.70;99.90;;;;;;6037648;29;88843;-63
2022/08/28 18:31:34;;;;;;;3.78;3.42;;;23.70;99.90;;;;;;6036319;28;89523;-63
2022/08/28 18:34:36;;;;;;;4.40;3.40;;;23.70;99.90;;;;;;6036462;28;88935;-63
2022/08/28 18:37:38;;;;;;;3.78;3.40;;;23.70;99.90;;;;;;6037136;28;89395;-63
2022/08/28 18:40:41;;;;;;;4.75;3.60;;;23.70;99.90;;;;;;6036970;28;89491;-64
2022/08/28 18:43:43;;;;;;;3.50;3.20;;;23.70;99.90;;;;;;6037464;28;90868;-63
2022/08/28 18:46:47;;;;;;;4.63;3.30;;;23.70;99.90;;;;;;6041716;28;89023;-63
2022/08/28 18:49:48;;;;;;;3.92;3.25;;;23.70;99.90;;;;;;6040795;28;89057;-63
2022/08/28 18:52:51;;;;;;;4.05;3.30;;;23.60;99.90;;;;;;6040084;28;87977;-63
2022/08/28 18:55:54;;;;;;;3.55;3.25;;;23.60;99.90;;;;;;6040242;28;88242;-63
2022/08/28 18:58:56;;;;;;;4.03;3.53;;;23.60;99.90;;;;;;6041357;28;89371;-63
2022/08/28 19:02:00;;;;;;;5.22;3.80;;;23.60;99.90;;;;;;6041124;28;89469;-64
2022/08/28 19:05:02;;;;;;;3.97;3.53;;;23.70;99.90;;;;;;6040897;28;90016;-63
2022/08/28 19:08:05;;;;;;;3.90;3.55;;;23.70;99.90;;;;;;6040416;28;89069;-63
2022/08/28 19:11:08;;;;;;;3.78;3.33;;;23.60;99.90;;;;;;6040858;28;89246;-63
2022/08/28 19:14:10;;;;;;;4.60;3.58;;;23.60;99.90;;;;;;6040352;28;89120;-63
2022/08/28 19:17:13;;;;;;;4.40;3.60;;;23.60;99.90;;;;;;6040459;28;87897;-63
2022/08/28 19:20:18;;;;;;;4.82;3.58;;;23.60;99.90;;;;;;6041414;28;88547;-63
2022/08/28 19:23:20;;;;;;;4.00;3.65;;;23.60;99.90;;;;;;6042157;29;87203;-64
2022/08/28 19:26:22;;;;;;;6.43;3.65;;;23.60;99.90;;;;;;6041286;28;88481;-64
2022/08/28 19:29:24;;;;;;;5.00;3.35;;;23.60;99.90;;;;;;6041100;28;89061;-63
2022/08/28 19:32:28;;;;;;;4.35;3.42;;;23.60;99.90;;;;;;6033103;28;89335;-63
2022/08/28 19:35:30;;;;;;;4.40;3.65;;;23.60;99.90;;;;;;6035996;29;90396;-63
2022/08/28 19:38:32;;;;;;;4.88;3.50;;;23.60;99.90;;;;;;6040199;28;89123;-63
2022/08/28 19:41:35;;;;;;;4.25;3.60;;;23.60;99.90;;;;;;6040360;28;89299;-63
2022/08/28 19:44:37;;;;;;;4.60;3.90;;;23.60;99.90;;;;;;6040972;29;89199;-63
2022/08/28 19:47:41;;;;;;;8.15;3.90;;;23.60;99.90;;;;;;6040357;28;89218;-63
2022/08/28 19:50:44;;;;;;;4.20;3.80;;;23.60;99.90;;;;;;6041549;28;89270;-63
2022/08/28 19:53:46;;;;;;;5.38;4.13;;;23.60;99.90;;;;;;6037103;28;90192;-63
2022/08/28 19:56:48;;;;;;;4.30;3.83;;;23.60;99.90;;;;;;6036334;29;88489;-63
2022/08/28 19:59:50;;;;;;;5.25;4.22;;;23.60;99.90;;;;;;6037571;28;89104;-63
2022/08/28 20:02:53;;;;;;;5.18;3.95;;;23.60;99.90;;;;;;6037143;28;88005;-63
2022/08/28 20:05:55;;;;;;;4.30;3.90;;;23.60;99.90;;;;;;6036393;28;88763;-63
2022/08/28 20:08:57;;;;;;;5.40;4.50;;;23.70;99.90;;;;;;6034329;28;88294;-63
2022/08/28 20:12:00;;;;;;;5.85;4.53;;;23.60;99.90;;;;;;6028028;29;89476;-63
2022/08/28 20:15:02;;;;;;;4.47;4.07;;;23.70;99.90;;;;;;6037940;28;89361;-63
2022/08/28 20:18:06;;;;;;;4.55;4.15;;;23.70;99.90;;;;;;6037978;28;91364;-62
2022/08/28 20:21:13;;;;;;;4.97;4.47;;;23.70;99.90;;;;;;6033423;28;89074;-64
2022/08/28 20:24:17;;;;;;;5.00;4.20;;;23.60;99.90;;;;;;6040285;28;87910;-63
2022/08/28 20:27:20;;;;;;;4.95;4.45;;;23.70;99.90;;;;;;6039504;28;89084;-63
2022/08/28 20:30:22;;;;;;;4.80;4.28;;;23.60;99.90;;;;;;6039975;28;89445;-64
2022/08/28 20:33:25;;;;;;;4.28;3.97;;;23.60;99.90;;;;;;6038572;28;89107;-63
2022/08/28 20:36:27;;;;;;;7.35;4.90;;;23.60;99.90;;;;;;6039543;28;90033;-63
2022/08/28 20:39:29;;;;;;;6.00;4.72;;;23.60;99.90;;;;;;6039537;28;88320;-63
2022/08/28 20:42:31;;;;;;;6.25;4.50;;;23.60;99.90;;;;;;6040222;28;88002;-63
2022/08/28 20:45:33;;;;;;;4.78;4.20;;;23.70;99.90;;;;;;6038358;28;89093;-63
2022/08/28 20:48:37;;;;;;;5.05;4.38;;;23.60;99.90;;;;;;6039781;28;89269;-63
2022/08/28 20:51:56;;;;;;;5.57;4.40;;;23.60;99.90;;;;;;6039562;28;88104;-63
2022/08/28 20:54:58;;;;;;;6.30;4.40;;;23.60;99.90;;;;;;6033023;28;89258;-63
2022/08/28 20:58:00;;;;;;;5.47;4.32;;;23.60;99.90;;;;;;6034151;28;88875;-63
2022/08/28 21:01:02;;;;;;;4.57;4.18;;;23.60;99.90;;;;;;6038813;28;89135;-63
2022/08/28 21:04:06;;;;;;;5.63;4.80;;;23.60;99.90;;;;;;6038721;28;89080;-63
2022/08/28 21:07:08;;;;;;;6.45;4.65;;;23.60;99.90;;;;;;6038262;28;90041;-63
2022/08/28 21:10:10;;;;;;;5.70;4.82;;;23.60;99.90;;;;;;6038987;28;90909;-63
2022/08/28 21:13:13;;;;;;;5.90;4.43;;;23.60;99.90;;;;;;6039209;28;89978;-63
2022/08/28 21:16:15;;;;;;;4.18;3.88;;;23.60;99.90;;;;;;6039012;29;89117;-63
2022/08/28 21:19:19;;;;;;;4.88;4.15;;;23.60;99.90;;;;;;6039230;28;89237;-63
2022/08/28 21:22:21;;;;;;;4.82;4.32;;;23.60;99.90;;;;;;6038500;28;89307;-64
2022/08/28 21:25:24;;;;;;;4.97;4.20;;;23.60;99.90;;;;;;6037871;28;89422;-63
2022/08/28 21:28:26;;;;;;;4.70;4.30;;;23.60;99.90;;;;;;6038735;28;88313;-63
2022/08/28 21:31:28;;;;;;;5.15;4.60;;;23.60;99.90;;;;;;6038339;28;89168;-63
2022/08/28 21:34:31;;;;;;;5.07;4.40;;;23.60;99.90;;;;;;6038570;28;89128;-63
2022/08/28 21:37:34;;;;;;;5.35;4.85;;;23.60;99.90;;;;;;6037948;28;90323;-63
2022/08/28 21:40:36;;;;;;;5.38;4.30;;;23.60;99.90;;;;;;6038608;28;89059;-64
2022/08/28 21:43:38;;;;;;;6.57;4.47;;;23.60;99.90;;;;;;6039315;28;89139;-63